Sunday, August 19, 2018, 12:25 AM GMT
Back to Local

CYOW, Ottawa Int'L. Ont.

Location: , , Canada Lat: 45.317
Local Time: 12:25 AM GMT ( 0:25 GMT) Lon: -75.667
Time Zone: GMT Elev: 380 ft

Show me the last for .
Show Decoded

2018-08-19 00:00 METAR CYOW 190000Z 36006KT 15SM BKN060 23/16 A2995 RMK SC5 SLP144 DENSITY ALT
                 1300FT =
2018-08-18 23:00 METAR CYOW 182300Z 04006KT 15SM FEW040 SCT060 24/16 A2994 RMK CU1SC3 CU TR
                 SLP141 DENSITY ALT 1500FT =
2018-08-18 22:00 METAR CYOW 182200Z 03007KT 15SM BKN040 24/16 A2994 RMK CU5 SLP138 DENSITY ALT
                 1600FT =
2018-08-18 21:00 METAR CYOW 182100Z 36008KT 15SM SCT040 BKN100 25/17 A2993 RMK CU4AC2 SLP136
                 DENSITY ALT 1600FT =
2018-08-18 20:00 METAR CYOW 182000Z 02008KT 340V050 15SM BKN036 25/17 A2993 RMK CU5 HI LVL FU
                 SLP136 DENSITY ALT 1700FT =
2018-08-18 19:00 METAR CYOW 181900Z 03008KT 15SM BKN033 24/17 A2994 RMK CU6 HI LVL FU SLP138
                 DENSITY ALT 1600FT =
2018-08-18 18:00 METAR CYOW 181800Z 04011KT 15SM BKN030 24/16 A2994 RMK CU5 HI LVL FU SLP140
                 DENSITY ALT 1500FT =
2018-08-18 17:00 METAR CYOW 181700Z 36006KT 15SM SCT030 23/16 A2995 RMK CU4 HI LVL FU SLP144
                 DENSITY ALT 1300FT =
2018-08-18 16:00 METAR CYOW 181600Z 03008KT 15SM SCT024 22/16 A2996 RMK CU3 HI LVL FU SLP146
                 DENSITY ALT 1300FT =
2018-08-18 15:00 METAR CYOW 181500Z 36007KT 15SM FEW020 21/16 A2996 RMK CU2 HI LVL FU SLP146
                 DENSITY ALT 1100FT =
2018-08-18 14:00 METAR CYOW 181400Z 36008KT 15SM FEW020 SCT240 20/16 A2995 RMK CU2CI2 HI LVL FU
                 OVR OTTAWA SLP145 DENSITY ALT 1000FT =
2018-08-18 13:00 METAR CYOW 181300Z 01010KT 15SM FEW010 BKN240 18/15 A2995 RMK CF1CI5 CF TR
                 SLP145 DENSITY ALT 800FT =
2018-08-18 12:00 METAR CYOW 181200Z 35009KT 15SM BKN240 17/15 A2996 RMK CI7 SLP146 DENSITY ALT
                 700FT =
2018-08-18 11:00 METAR CYOW 181100Z 35007KT 15SM FEW040 BKN240 16/14 A2994 RMK SC1CI6 SC TR
                 SLP142 DENSITY ALT 600FT =
2018-08-18 10:00 METAR CYOW 181000Z 01008KT 15SM FEW012 FEW045 BKN230 16/14 A2992 RMK ST1SC2CI5
                 ST TR SLP134 DENSITY ALT 700FT =
2018-08-18 09:00 METAR CYOW 180900Z 34008KT 15SM FEW047 BKN220 17/14 A2992 RMK SC2CI5 SLP133
                 DENSITY ALT 700FT =
2018-08-18 08:00 METAR CYOW 180800Z 35008KT 15SM FEW190 OVC230 16/14 A2991 RMK AC2CI6 SLP128
                 DENSITY ALT 700FT =
2018-08-18 07:00 METAR CYOW 180700Z 01005KT 15SM FEW017 BKN210 BKN240 17/14 A2990 RMK SC1CI6CI1
                 SC TR SLP126 DENSITY ALT 700FT =
2018-08-18 06:00 METAR CYOW 180600Z 36008KT 15SM FEW017 BKN220 17/15 A2991 RMK SC1CI6 SLP130
                 DENSITY ALT 800FT =
2018-08-18 05:00 METAR CYOW 180500Z 34009KT 15SM SCT017 BKN230 18/15 A2991 RMK SC4CI2 SLP128
                 DENSITY ALT 800FT =
2018-08-18 04:00 METAR CYOW 180400Z 34008KT 15SM SCT018 BKN250 18/15 A2989 RMK SC4CI3 SLP124
                 DENSITY ALT 900FT =
2018-08-18 03:00 METAR CYOW 180300Z 33010KT 15SM SCT018 BKN220 18/15 A2988 RMK SC3CI4 SLP119
                 DENSITY ALT 900FT =
2018-08-18 02:00 METAR CYOW 180200Z 34010G16KT 15SM SCT018 BKN220 19/16 A2989 RMK SC4CI3 SLP122
                 DENSITY ALT 1000FT =
2018-08-18 01:00 METAR CYOW 180100Z 34012KT 15SM FEW020 BKN220 19/16 A2988 RMK SC2CI5 SLP121
                 DENSITY ALT 1100FT =

Support USWX by starting your Amazon purchase here.